Terminal Aerodrome Forecast
Issued by NWS

Home | Current Version | Previous Version | Text Only | Print | Product List | Glossary Off
Versions: 1 2 3 4 5 6 7 8 9 10 11 12 13 14 15 16 17 18 19 20 21 22 23

503
FTUS43 KFGF 130823 AAA
TAFBJI
TAF AMD
KBJI 130823Z 1308/1406 18005KT 5SM -FZRASN OVC040
     FM131000 22006KT P6SM OVC020
     FM131300 28008KT P6SM OVC008
     FM131800 33018G27KT P6SM OVC020
     FM132200 34012KT P6SM BKN015
     FM140400 32005KT P6SM BKN008=

USA.gov is the U.S. government's official web portal to all federal, state and local government web resources and services.